Time;durP1;ratioP1;P1;durP2;ratioP2;P2;SDS_P1;SDS_P2;PMS_P1;PMS_P2;Temp;Humidity;BMP_temperature;BMP_pressure;BME280_temperature;BME280_humidity;BME280_pressure;Samples;Min_cycle;Max_cycle;Signal;HPM_P1;HPM_P2
2023/02/22 00:01:49;;;;;;;1.60;1.20;;;6.40;98.20;;;;;;4986056;28;20564;-73
2023/02/22 00:04:19;;;;;;;1.70;1.60;;;6.40;98.20;;;;;;4984426;28;21195;-73
2023/02/22 00:06:48;;;;;;;1.63;1.30;;;6.40;98.20;;;;;;4986699;28;20492;-73
2023/02/22 00:09:19;;;;;;;1.80;1.60;;;6.50;98.20;;;;;;4998201;28;20471;-72
2023/02/22 00:11:47;;;;;;;2.10;1.90;;;6.50;98.20;;;;;;4985605;28;20480;-72
2023/02/22 00:14:14;;;;;;;1.60;1.30;;;6.50;98.20;;;;;;4991092;28;20519;-72
2023/02/22 00:16:41;;;;;;;1.60;1.30;;;6.50;98.20;;;;;;4980505;28;20496;-73
2023/02/22 00:19:09;;;;;;;1.70;1.50;;;6.50;98.20;;;;;;5000983;28;20466;-73
2023/02/22 00:21:37;;;;;;;1.60;1.30;;;6.60;98.20;;;;;;4989341;28;20479;-72
2023/02/22 00:24:21;;;;;;;1.60;1.20;;;6.60;98.20;;;;;;4997021;28;20465;-72
2023/02/22 00:26:49;;;;;;;1.60;1.20;;;6.60;98.20;;;;;;4985397;28;20911;-72
2023/02/22 00:29:16;;;;;;;1.60;1.37;;;6.60;98.20;;;;;;4997007;28;20954;-73
2023/02/22 00:31:43;;;;;;;2.23;2.00;;;6.70;98.20;;;;;;4986388;28;20491;-73
2023/02/22 00:34:10;;;;;;;1.60;1.30;;;6.70;98.20;;;;;;4984712;28;20488;-72
2023/02/22 00:36:38;;;;;;;1.70;1.30;;;6.70;98.20;;;;;;4987480;28;20480;-72
2023/02/22 00:39:06;;;;;;;1.60;1.30;;;6.70;98.20;;;;;;4990362;28;20461;-72
2023/02/22 00:41:33;;;;;;;1.70;1.40;;;6.60;98.20;;;;;;4987958;28;21035;-73
2023/02/22 00:44:00;;;;;;;3.30;2.80;;;6.60;98.20;;;;;;4999289;28;20461;-73
2023/02/22 00:46:27;;;;;;;1.60;1.20;;;6.60;98.20;;;;;;4983770;28;20487;-73
2023/02/22 00:48:54;;;;;;;1.63;1.30;;;6.60;98.20;;;;;;5003099;28;20460;-73
2023/02/22 00:51:21;;;;;;;1.90;1.70;;;6.60;98.20;;;;;;4984393;28;20486;-72
2023/02/22 00:53:50;;;;;;;1.60;1.30;;;6.60;98.20;;;;;;4998754;28;20472;-73
2023/02/22 00:56:17;;;;;;;1.60;1.20;;;6.60;98.20;;;;;;4982921;28;20483;-73
2023/02/22 00:58:44;;;;;;;1.60;1.30;;;6.60;98.20;;;;;;5000647;28;20548;-74
2023/02/22 01:01:11;;;;;;;1.60;1.27;;;6.50;98.20;;;;;;4983109;28;20484;-73
2023/02/22 01:03:40;;;;;;;1.60;1.30;;;6.50;98.20;;;;;;5000399;28;20465;-74
2023/02/22 01:06:07;;;;;;;1.60;1.30;;;6.50;98.20;;;;;;4981250;28;20868;-73
2023/02/22 01:08:34;;;;;;;1.60;1.20;;;6.50;98.20;;;;;;5002619;28;20539;-73
2023/02/22 01:11:03;;;;;;;1.60;1.20;;;6.50;98.20;;;;;;4979959;28;20523;-74
2023/02/22 01:13:30;;;;;;;1.63;1.30;;;6.50;98.20;;;;;;5002356;28;20455;-74
2023/02/22 01:15:57;;;;;;;1.63;1.30;;;6.50;98.20;;;;;;4980800;28;20477;-73
2023/02/22 01:18:24;;;;;;;1.60;1.20;;;6.50;98.20;;;;;;5005392;28;20464;-73
2023/02/22 01:20:52;;;;;;;1.63;1.30;;;6.50;98.20;;;;;;4970440;28;20461;-74
2023/02/22 01:23:19;;;;;;;1.60;1.30;;;6.50;98.20;;;;;;5003072;28;20520;-73
2023/02/22 01:25:47;;;;;;;1.60;1.20;;;6.50;98.20;;;;;;4988961;28;20485;-74
2023/02/22 01:28:16;;;;;;;1.70;1.40;;;6.50;98.20;;;;;;4975118;28;20523;-74
2023/02/22 01:30:43;;;;;;;1.60;1.30;;;6.50;98.20;;;;;;4989702;28;20469;-74
2023/02/22 01:33:11;;;;;;;1.60;1.30;;;6.60;98.20;;;;;;4993272;28;20512;-74
2023/02/22 01:35:40;;;;;;;1.60;1.30;;;6.60;98.20;;;;;;4990223;28;20850;-74
2023/02/22 01:38:08;;;;;;;1.60;1.30;;;6.60;98.20;;;;;;4992622;28;20632;-74
2023/02/22 01:40:40;;;;;;;1.70;1.30;;;6.50;98.20;;;;;;4983047;28;20458;-74
2023/02/22 01:43:19;;;;;;;1.60;1.20;;;6.50;98.20;;;;;;4992641;28;21074;-74
2023/02/22 01:45:59;;;;;;;1.60;1.23;;;6.60;98.20;;;;;;4989600;28;20484;-74
2023/02/22 01:48:40;;;;;;;1.60;1.30;;;6.60;98.20;;;;;;4976599;28;20834;-73
2023/02/22 01:51:12;;;;;;;1.60;1.20;;;6.60;98.20;;;;;;4988631;28;20487;-73
2023/02/22 01:53:46;;;;;;;1.70;1.30;;;6.50;98.20;;;;;;5000485;28;20504;-74
2023/02/22 01:56:14;;;;;;;1.70;1.30;;;6.50;98.20;;;;;;4972186;28;20567;-74
2023/02/22 01:58:46;;;;;;;1.70;1.30;;;6.40;98.20;;;;;;4988671;28;20852;-74
2023/02/22 02:01:14;;;;;;;1.67;1.40;;;6.40;98.20;;;;;;4973571;28;20555;-73
2023/02/22 02:03:44;;;;;;;1.70;1.30;;;6.40;98.20;;;;;;4999884;28;20476;-75
2023/02/22 02:06:14;;;;;;;1.67;1.30;;;6.40;98.20;;;;;;4980801;28;21019;-74
2023/02/22 02:08:50;;;;;;;1.63;1.30;;;6.40;98.20;;;;;;5001973;28;20461;-73
2023/02/22 02:11:20;;;;;;;1.60;1.30;;;6.30;98.20;;;;;;4963884;28;20855;-73
2023/02/22 02:13:50;;;;;;;1.60;1.30;;;6.30;98.20;;;;;;4988422;28;20548;-74
2023/02/22 02:16:20;;;;;;;1.60;1.30;;;6.30;98.20;;;;;;4982246;28;20492;-74
2023/02/22 02:18:47;;;;;;;1.60;1.20;;;6.30;98.20;;;;;;4996352;28;20468;-74
2023/02/22 02:21:34;;;;;;;1.60;1.23;;;6.30;98.20;;;;;;4960955;28;20494;-74
2023/02/22 02:24:33;;;;;;;1.70;1.40;;;6.30;98.20;;;;;;4996282;28;20499;-74
2023/02/22 02:27:10;;;;;;;1.60;1.20;;;6.30;98.20;;;;;;4986630;28;20480;-73
2023/02/22 02:30:02;;;;;;;1.60;1.30;;;6.30;98.20;;;;;;4991625;28;20453;-74
2023/02/22 02:32:38;;;;;;;1.60;1.20;;;6.40;98.20;;;;;;4984537;28;20868;-74
2023/02/22 02:35:12;;;;;;;1.60;1.20;;;6.40;98.20;;;;;;5005353;28;20911;-74
2023/02/22 02:37:54;;;;;;;1.70;1.40;;;6.40;98.20;;;;;;4993326;28;20508;-74
2023/02/22 02:40:25;;;;;;;1.60;1.30;;;6.40;98.20;;;;;;4982699;28;20460;-74
2023/02/22 02:43:00;;;;;;;2.20;1.87;;;6.40;98.20;;;;;;4977835;28;20905;-73
2023/02/22 02:45:32;;;;;;;1.67;1.40;;;6.40;98.20;;;;;;4987090;28;20508;-74
2023/02/22 02:48:06;;;;;;;1.60;1.20;;;6.40;98.20;;;;;;4975847;28;20523;-74
2023/02/22 02:50:38;;;;;;;1.67;1.30;;;6.40;98.20;;;;;;4991962;28;20556;-74
2023/02/22 02:53:08;;;;;;;1.60;1.30;;;6.40;98.20;;;;;;4979379;28;20528;-73
2023/02/22 02:55:37;;;;;;;1.60;1.30;;;6.40;98.20;;;;;;4982931;28;20532;-74
2023/02/22 02:58:04;;;;;;;1.60;1.30;;;6.40;98.20;;;;;;4983914;28;21347;-73
2023/02/22 03:00:38;;;;;;;1.60;1.20;;;6.40;98.20;;;;;;4992524;28;20501;-74
2023/02/22 03:03:33;;;;;;;4.67;4.23;;;6.40;98.20;;;;;;4989565;28;20496;-73
2023/02/22 03:06:30;;;;;;;1.60;1.30;;;6.50;98.20;;;;;;4977945;28;20487;-73
2023/02/22 03:09:05;;;;;;;1.60;1.30;;;6.50;98.20;;;;;;4984687;28;20552;-74
2023/02/22 03:11:43;;;;;;;1.60;1.30;;;6.50;98.20;;;;;;4982352;28;20544;-74
2023/02/22 03:14:17;;;;;;;1.70;1.40;;;6.50;98.20;;;;;;4981054;28;20520;-74
2023/02/22 03:16:50;;;;;;;1.63;1.30;;;6.50;98.20;;;;;;4983644;28;21076;-74
2023/02/22 03:19:29;;;;;;;1.60;1.20;;;6.50;98.20;;;;;;4979209;28;21189;-73
2023/02/22 03:22:01;;;;;;;1.60;1.20;;;6.50;98.20;;;;;;4983080;28;20479;-74
2023/02/22 03:24:32;;;;;;;1.63;1.20;;;6.40;98.20;;;;;;4979523;28;20492;-73
2023/02/22 03:27:03;;;;;;;1.60;1.20;;;6.40;98.20;;;;;;4982139;28;20599;-73
2023/02/22 03:29:34;;;;;;;1.67;1.30;;;6.40;98.20;;;;;;4995078;28;20461;-74
2023/02/22 03:32:03;;;;;;;1.63;1.30;;;6.40;98.20;;;;;;4982600;28;20896;-74
2023/02/22 03:34:34;;;;;;;1.60;1.20;;;6.50;98.20;;;;;;4986570;28;20497;-73
2023/02/22 03:37:05;;;;;;;1.60;1.20;;;6.50;98.20;;;;;;4983510;28;20602;-74
2023/02/22 03:39:36;;;;;;;1.70;1.40;;;6.50;98.20;;;;;;4986611;28;20585;-74
2023/02/22 03:42:06;;;;;;;1.70;1.30;;;6.50;98.20;;;;;;4981981;28;20476;-74
2023/02/22 03:44:36;;;;;;;1.63;1.30;;;6.50;98.20;;;;;;4986845;28;20476;-74
2023/02/22 03:47:07;;;;;;;1.60;1.20;;;6.50;98.20;;;;;;4979362;28;22268;-74
2023/02/22 03:49:38;;;;;;;1.60;1.40;;;6.40;98.20;;;;;;4992489;28;20468;-73
2023/02/22 03:52:07;;;;;;;1.60;1.30;;;6.40;98.20;;;;;;4987273;28;20479;-74
2023/02/22 03:54:34;;;;;;;1.60;1.20;;;6.40;98.20;;;;;;4990804;28;20464;-74
2023/02/22 03:57:08;;;;;;;1.70;1.30;;;6.40;98.20;;;;;;4983729;28;20534;-74
2023/02/22 03:59:36;;;;;;;1.60;1.30;;;6.40;98.20;;;;;;4998688;28;20551;-74
2023/02/22 04:02:03;;;;;;;1.70;1.50;;;6.40;98.20;;;;;;4989404;28;20483;-74
2023/02/22 04:04:30;;;;;;;1.60;1.30;;;6.40;98.20;;;;;;4986481;28;20461;-74
2023/02/22 04:06:58;;;;;;;1.60;1.30;;;6.40;98.20;;;;;;4981673;28;20491;-74
2023/02/22 04:09:25;;;;;;;1.60;1.30;;;6.30;98.20;;;;;;4986840;28;20465;-73
2023/02/22 04:11:53;;;;;;;1.63;1.30;;;6.30;98.20;;;;;;4981528;28;20578;-73
2023/02/22 04:14:20;;;;;;;1.60;1.20;;;6.30;98.20;;;;;;4992434;28;20522;-74
2023/02/22 04:16:47;;;;;;;1.60;1.20;;;6.30;98.20;;;;;;4975337;28;20591;-74
2023/02/22 04:19:15;;;;;;;1.60;1.30;;;6.30;98.20;;;;;;4981451;28;20480;-74
2023/02/22 04:21:42;;;;;;;1.80;1.57;;;6.30;98.20;;;;;;4976644;28;20476;-73
2023/02/22 04:24:11;;;;;;;1.67;1.40;;;6.30;98.20;;;;;;4997826;28;20623;-74
2023/02/22 04:26:39;;;;;;;1.70;1.40;;;6.30;98.20;;;;;;4980618;28;21097;-74
2023/02/22 04:29:07;;;;;;;1.60;1.23;;;6.40;98.20;;;;;;4994753;28;21061;-73
2023/02/22 04:31:34;;;;;;;1.60;1.20;;;6.30;98.20;;;;;;4981085;28;20901;-74
2023/02/22 04:34:02;;;;;;;1.60;1.20;;;6.30;98.20;;;;;;4985567;28;21118;-74
2023/02/22 04:36:31;;;;;;;1.60;1.23;;;6.30;98.20;;;;;;4980502;28;20598;-73
2023/02/22 04:38:59;;;;;;;1.60;1.20;;;6.30;98.20;;;;;;4990375;28;20547;-73
2023/02/22 04:41:30;;;;;;;1.67;1.30;;;6.40;98.20;;;;;;4983756;28;21040;-74
2023/02/22 04:43:58;;;;;;;1.60;1.20;;;6.30;98.20;;;;;;4991499;28;21016;-73
2023/02/22 04:46:25;;;;;;;1.60;1.20;;;6.30;98.20;;;;;;4988551;28;20502;-73
2023/02/22 04:48:53;;;;;;;1.60;1.30;;;6.30;98.20;;;;;;4994480;28;20464;-74
2023/02/22 04:51:20;;;;;;;1.60;1.20;;;6.30;98.20;;;;;;4983916;28;20481;-74
2023/02/22 04:53:48;;;;;;;1.60;1.20;;;6.30;98.20;;;;;;4980478;28;20856;-74
2023/02/22 04:56:18;;;;;;;1.60;1.20;;;6.30;98.20;;;;;;4988574;28;20500;-74
2023/02/22 04:58:47;;;;;;;1.63;1.30;;;6.30;98.20;;;;;;4979670;28;20465;-74
2023/02/22 05:01:15;;;;;;;1.60;1.30;;;6.30;98.20;;;;;;4990304;28;20476;-74
2023/02/22 05:03:43;;;;;;;1.70;1.33;;;6.30;98.20;;;;;;4993303;28;20670;-74
2023/02/22 05:06:12;;;;;;;1.70;1.40;;;6.30;98.20;;;;;;4980556;28;21031;-74
2023/02/22 05:08:39;;;;;;;1.70;1.40;;;6.20;98.20;;;;;;4987006;28;20465;-73
2023/02/22 05:11:07;;;;;;;1.60;1.30;;;6.30;98.20;;;;;;4983519;28;20876;-74
2023/02/22 05:13:34;;;;;;;1.60;1.30;;;6.30;98.20;;;;;;4993616;28;20468;-74
2023/02/22 05:16:03;;;;;;;1.60;1.30;;;6.30;98.20;;;;;;4985818;28;20992;-74
2023/02/22 05:18:30;;;;;;;1.60;1.20;;;6.30;98.20;;;;;;4982952;28;20461;-74
2023/02/22 05:20:58;;;;;;;1.70;1.40;;;6.30;98.20;;;;;;4981226;28;20523;-73
2023/02/22 05:23:26;;;;;;;1.63;1.30;;;6.30;98.20;;;;;;4994950;28;21105;-74
2023/02/22 05:25:54;;;;;;;1.70;1.40;;;6.30;98.20;;;;;;4986036;28;20485;-74
2023/02/22 05:28:21;;;;;;;1.63;1.30;;;6.30;98.20;;;;;;4979790;28;20457;-74
2023/02/22 05:30:48;;;;;;;1.67;1.30;;;6.30;98.20;;;;;;4975334;28;20912;-74
2023/02/22 05:33:17;;;;;;;2.73;2.03;;;6.30;98.20;;;;;;4980608;28;20981;-73
2023/02/22 05:35:45;;;;;;;1.70;1.30;;;6.30;98.20;;;;;;4984687;28;20489;-74
2023/02/22 05:38:14;;;;;;;1.67;1.30;;;6.30;98.20;;;;;;4965809;28;20943;-74
2023/02/22 05:40:41;;;;;;;1.67;1.30;;;6.20;98.20;;;;;;4991562;28;21352;-73
2023/02/22 05:43:09;;;;;;;1.60;1.20;;;6.20;98.20;;;;;;4962489;28;20481;-74
2023/02/22 05:45:37;;;;;;;1.60;1.27;;;6.10;98.20;;;;;;4988681;28;20490;-74
2023/02/22 05:48:05;;;;;;;1.63;1.30;;;6.10;98.20;;;;;;4971898;28;20647;-74
2023/02/22 05:50:34;;;;;;;1.70;1.37;;;6.00;98.20;;;;;;4988917;28;20476;-73
2023/02/22 05:53:02;;;;;;;1.63;1.30;;;6.00;98.20;;;;;;4966902;28;20485;-73
2023/02/22 05:55:31;;;;;;;2.03;1.83;;;5.90;98.20;;;;;;4992651;28;20484;-74
2023/02/22 05:58:00;;;;;;;5.20;3.10;;;5.90;98.20;;;;;;4966090;28;20576;-74
2023/02/22 06:00:29;;;;;;;1.60;1.30;;;5.90;98.20;;;;;;4991020;28;20466;-73
2023/02/22 06:02:58;;;;;;;1.70;1.43;;;5.90;98.20;;;;;;4965046;28;21014;-74
2023/02/22 06:05:26;;;;;;;1.60;1.20;;;5.80;98.20;;;;;;4988773;28;20492;-74
2023/02/22 06:07:55;;;;;;;1.70;1.30;;;5.80;98.20;;;;;;4969801;28;20493;-74
2023/02/22 06:10:23;;;;;;;1.70;1.50;;;5.80;98.20;;;;;;4990686;28;20459;-73
2023/02/22 06:12:51;;;;;;;1.67;1.37;;;5.80;98.20;;;;;;4966956;28;20490;-74
2023/02/22 06:15:20;;;;;;;1.60;1.30;;;5.70;98.20;;;;;;4987478;28;20489;-74
2023/02/22 06:17:49;;;;;;;1.67;1.30;;;5.70;98.20;;;;;;4971659;28;20556;-73
2023/02/22 06:20:18;;;;;;;1.60;1.30;;;5.70;98.20;;;;;;4988234;28;20496;-73
2023/02/22 06:22:48;;;;;;;1.60;1.30;;;5.70;98.20;;;;;;4964106;28;20507;-73
2023/02/22 06:25:19;;;;;;;1.60;1.30;;;5.70;98.20;;;;;;4984383;28;20484;-73
2023/02/22 06:34:14;;;;;;;1.70;1.50;;;5.70;98.20;;;;;;4895443;29;21847;-74
2023/02/22 06:40:10;;;;;;;1.67;1.30;;;5.60;98.20;;;;;;4914803;29;21044;-74
2023/02/22 06:42:40;;;;;;;1.70;1.40;;;5.60;98.20;;;;;;4920822;28;21086;-76
2023/02/22 06:45:09;;;;;;;1.67;1.40;;;5.60;98.20;;;;;;4987132;28;20489;-75
2023/02/22 06:47:40;;;;;;;1.70;1.40;;;5.60;98.20;;;;;;4969451;28;20541;-74
2023/02/22 06:50:13;;;;;;;1.70;1.43;;;5.60;98.20;;;;;;4991347;28;20877;-75
2023/02/22 06:52:43;;;;;;;1.63;1.37;;;5.60;98.20;;;;;;4966527;28;20477;-74
2023/02/22 06:55:11;;;;;;;1.70;1.40;;;5.60;98.20;;;;;;4987088;28;20523;-75
2023/02/22 06:57:41;;;;;;;1.60;1.30;;;5.60;98.20;;;;;;4967948;28;21110;-74
2023/02/22 07:00:10;;;;;;;1.93;1.73;;;5.60;98.20;;;;;;4987861;28;21050;-75
2023/02/22 07:02:39;;;;;;;1.70;1.40;;;5.60;98.20;;;;;;4969069;28;20498;-75
2023/02/22 07:05:07;;;;;;;1.63;1.30;;;5.60;98.20;;;;;;4993106;28;20570;-74
2023/02/22 07:07:34;;;;;;;1.60;1.30;;;5.60;98.20;;;;;;4961831;28;20509;-74
2023/02/22 07:10:02;;;;;;;1.70;1.40;;;5.60;98.20;;;;;;4984656;28;20471;-73
2023/02/22 07:12:29;;;;;;;1.70;1.40;;;5.60;98.20;;;;;;4969728;28;20882;-73
2023/02/22 07:15:00;;;;;;;1.60;1.30;;;5.70;98.20;;;;;;4982975;28;20470;-74
2023/02/22 07:17:28;;;;;;;1.70;1.50;;;5.70;98.20;;;;;;4976572;28;20487;-73
2023/02/22 07:19:56;;;;;;;1.67;1.37;;;5.70;98.20;;;;;;4991269;28;20496;-73
2023/02/22 07:22:24;;;;;;;1.70;1.30;;;5.80;98.20;;;;;;4970774;28;20910;-74
2023/02/22 07:24:52;;;;;;;1.63;1.30;;;5.80;98.20;;;;;;4984081;28;21005;-75
2023/02/22 07:27:19;;;;;;;1.60;1.30;;;5.90;98.20;;;;;;4969979;28;20492;-74
2023/02/22 07:29:47;;;;;;;1.60;1.37;;;5.90;98.20;;;;;;4983677;28;20471;-73
2023/02/22 07:32:16;;;;;;;1.90;1.70;;;6.00;98.20;;;;;;4969226;28;20540;-74
2023/02/22 07:34:43;;;;;;;1.63;1.37;;;6.00;98.20;;;;;;4982701;28;20491;-74
2023/02/22 07:37:11;;;;;;;1.70;1.40;;;6.10;98.20;;;;;;4964004;28;20485;-74
2023/02/22 07:39:42;;;;;;;1.60;1.23;;;6.20;98.20;;;;;;4982089;28;20505;-75
2023/02/22 07:42:09;;;;;;;1.67;1.30;;;6.30;98.20;;;;;;4979468;28;20484;-73
2023/02/22 07:44:37;;;;;;;1.70;1.30;;;6.30;98.20;;;;;;4985755;28;20497;-74
2023/02/22 07:47:05;;;;;;;1.63;1.30;;;6.40;98.20;;;;;;4974995;28;20496;-74
2023/02/22 07:49:34;;;;;;;1.67;1.30;;;6.50;98.20;;;;;;4986271;28;20564;-74
2023/02/22 07:52:02;;;;;;;1.60;1.20;;;6.60;98.20;;;;;;4968532;28;20490;-73
2023/02/22 07:54:29;;;;;;;1.70;1.30;;;6.70;98.20;;;;;;4980241;28;20461;-74
2023/02/22 07:56:58;;;;;;;1.70;1.40;;;6.80;98.20;;;;;;4974648;28;21095;-75
2023/02/22 07:59:25;;;;;;;1.90;1.80;;;6.90;98.20;;;;;;4984130;28;20474;-76
2023/02/22 08:01:53;;;;;;;1.60;1.30;;;7.10;98.20;;;;;;4989791;28;20484;-75
2023/02/22 08:04:20;;;;;;;1.60;1.20;;;7.20;98.20;;;;;;4991545;28;20492;-76
2023/02/22 08:06:49;;;;;;;1.63;1.30;;;7.30;98.20;;;;;;4982369;28;20513;-76
2023/02/22 08:09:17;;;;;;;1.70;1.40;;;7.50;98.20;;;;;;4992302;28;21010;-76
2023/02/22 08:11:45;;;;;;;1.70;1.30;;;7.60;98.20;;;;;;4971996;28;20600;-75
2023/02/22 08:14:16;;;;;;;3.40;3.10;;;7.70;98.20;;;;;;4980350;28;20469;-76
2023/02/22 08:16:44;;;;;;;1.63;1.23;;;7.80;98.20;;;;;;4977650;28;21285;-73
2023/02/22 08:19:12;;;;;;;1.70;1.40;;;7.90;98.20;;;;;;4984508;28;20465;-75
2023/02/22 08:21:40;;;;;;;1.63;1.30;;;7.90;98.20;;;;;;4978537;28;20504;-75
2023/02/22 08:24:10;;;;;;;1.70;1.30;;;8.00;98.20;;;;;;4987994;28;20495;-75
2023/02/22 08:26:37;;;;;;;1.70;1.33;;;8.10;98.20;;;;;;4983489;28;20904;-74
2023/02/22 08:29:05;;;;;;;1.60;1.20;;;8.20;98.20;;;;;;4979776;28;20993;-75
2023/02/22 08:31:33;;;;;;;1.70;1.33;;;8.30;98.20;;;;;;4970759;28;20512;-75
2023/02/22 08:34:01;;;;;;;1.70;1.30;;;8.40;98.20;;;;;;4981838;28;20957;-75
2023/02/22 08:36:29;;;;;;;1.67;1.33;;;8.40;98.20;;;;;;4971882;28;21349;-75
2023/02/22 08:38:57;;;;;;;1.60;1.20;;;8.60;98.20;;;;;;4980696;28;20974;-75
2023/02/22 08:41:27;;;;;;;1.70;1.47;;;8.70;98.20;;;;;;4977037;28;22066;-75
2023/02/22 08:43:55;;;;;;;1.70;1.20;;;8.80;98.20;;;;;;4985209;28;20861;-75
2023/02/22 08:46:23;;;;;;;1.60;1.20;;;8.90;98.20;;;;;;4975657;28;20517;-75
2023/02/22 08:48:50;;;;;;;1.60;1.20;;;9.00;98.20;;;;;;4982099;28;20468;-75
2023/02/22 08:51:18;;;;;;;2.03;1.77;;;9.00;98.20;;;;;;4980754;28;20471;-75
2023/02/22 08:53:46;;;;;;;1.60;1.10;;;9.10;98.20;;;;;;4974814;28;20996;-76
2023/02/22 08:56:14;;;;;;;1.70;1.30;;;9.10;98.20;;;;;;4984277;28;20595;-75
2023/02/22 08:58:43;;;;;;;1.60;1.20;;;9.10;98.20;;;;;;4995197;28;20719;-75
2023/02/22 09:01:12;;;;;;;1.70;1.27;;;9.20;98.20;;;;;;4974247;28;20486;-74
2023/02/22 09:03:40;;;;;;;2.17;1.97;;;9.20;98.20;;;;;;4973352;28;20873;-75
2023/02/22 09:06:08;;;;;;;1.93;1.73;;;9.30;98.20;;;;;;4975647;28;20477;-75
2023/02/22 09:08:35;;;;;;;1.70;1.30;;;9.40;98.20;;;;;;4982940;28;21029;-75
2023/02/22 09:11:03;;;;;;;1.60;1.20;;;9.50;98.20;;;;;;4972643;28;20465;-75
2023/02/22 09:13:30;;;;;;;1.70;1.47;;;9.60;98.20;;;;;;4989992;28;20849;-75
2023/02/22 09:16:00;;;;;;;1.60;1.10;;;9.60;98.20;;;;;;4980771;28;20910;-75
2023/02/22 09:18:28;;;;;;;1.93;1.73;;;9.70;98.20;;;;;;4979580;28;20679;-75
2023/02/22 09:20:56;;;;;;;1.80;1.47;;;9.80;98.20;;;;;;4978217;28;20889;-75
2023/02/22 09:23:24;;;;;;;1.60;1.20;;;9.90;98.20;;;;;;4973810;28;20494;-76
2023/02/22 09:25:52;;;;;;;2.53;2.13;;;10.00;98.20;;;;;;4977302;28;20491;-75
2023/02/22 09:28:20;;;;;;;1.67;1.20;;;10.10;98.20;;;;;;4982887;28;20549;-75
2023/02/22 09:30:48;;;;;;;1.70;1.40;;;10.20;98.20;;;;;;4982642;28;21558;-76
2023/02/22 09:33:19;;;;;;;1.60;1.10;;;10.30;98.20;;;;;;4962805;28;21095;-76
2023/02/22 09:35:49;;;;;;;1.63;1.20;;;10.40;98.20;;;;;;4968268;28;20572;-76
2023/02/22 09:38:21;;;;;;;1.67;1.20;;;10.50;98.20;;;;;;4977891;28;20938;-75
2023/02/22 09:40:53;;;;;;;1.67;1.20;;;10.70;98.20;;;;;;4980596;28;20468;-76
2023/02/22 09:43:34;;;;;;;1.60;1.10;;;10.70;98.20;;;;;;4978192;28;20482;-75
2023/02/22 09:46:22;;;;;;;1.63;1.10;;;10.90;98.20;;;;;;4977932;28;20503;-75
2023/02/22 09:49:02;;;;;;;1.60;1.30;;;11.00;98.20;;;;;;4979633;28;20553;-76
2023/02/22 09:51:49;;;;;;;1.70;1.30;;;11.00;98.20;;;;;;4972791;28;21045;-75
2023/02/22 09:54:25;;;;;;;1.60;1.10;;;11.00;98.20;;;;;;4980921;28;20468;-75
2023/02/22 09:56:57;;;;;;;1.60;1.10;;;11.00;98.20;;;;;;4972349;28;21032;-75
2023/02/22 09:59:30;;;;;;;1.60;1.10;;;11.00;98.20;;;;;;4981431;28;20503;-75
2023/02/22 10:02:05;;;;;;;1.90;1.20;;;11.00;98.20;;;;;;4968925;28;20493;-75
2023/02/22 10:04:42;;;;;;;1.60;1.10;;;11.00;98.20;;;;;;4982647;28;20485;-75
2023/02/22 10:07:20;;;;;;;1.80;1.60;;;11.10;98.20;;;;;;4967939;28;20490;-75
2023/02/22 10:09:50;;;;;;;1.60;1.00;;;11.20;98.20;;;;;;4980618;28;20469;-76
2023/02/22 10:12:28;;;;;;;1.60;1.10;;;11.30;98.20;;;;;;4972884;28;20487;-75
2023/02/22 10:15:20;;;;;;;1.70;1.30;;;11.40;98.20;;;;;;4982180;28;20978;-76
2023/02/22 10:17:59;;;;;;;1.70;1.47;;;11.60;98.20;;;;;;4959981;28;20478;-75
2023/02/22 10:20:42;;;;;;;2.67;1.63;;;11.60;98.20;;;;;;4988216;28;20486;-76
2023/02/22 10:23:18;;;;;;;1.60;1.10;;;11.70;98.20;;;;;;4964431;28;20995;-75
2023/02/22 10:25:50;;;;;;;1.60;1.10;;;11.80;98.20;;;;;;4984169;28;20492;-76
2023/02/22 10:28:23;;;;;;;1.60;1.20;;;11.80;98.20;;;;;;4957192;28;20476;-76
2023/02/22 10:30:55;;;;;;;1.60;1.10;;;12.00;98.20;;;;;;4974306;28;21055;-75
2023/02/22 10:33:25;;;;;;;1.60;1.17;;;12.10;98.20;;;;;;4987833;28;20780;-76
2023/02/22 10:35:56;;;;;;;1.60;1.00;;;12.20;98.20;;;;;;4974061;28;20485;-76
2023/02/22 10:38:26;;;;;;;1.70;1.40;;;12.30;98.20;;;;;;4970849;28;20903;-76
2023/02/22 10:40:58;;;;;;;1.70;1.30;;;12.50;98.20;;;;;;4974326;28;20496;-76
2023/02/22 10:43:26;;;;;;;1.60;1.00;;;12.70;98.20;;;;;;4973416;28;20973;-76
2023/02/22 10:45:57;;;;;;;1.60;1.00;;;12.70;98.20;;;;;;4977832;28;20491;-76
2023/02/22 10:48:27;;;;;;;1.60;1.00;;;12.70;98.20;;;;;;4977940;28;20530;-75
2023/02/22 10:51:01;;;;;;;1.60;1.10;;;12.90;98.20;;;;;;4971508;28;20523;-75
2023/02/22 10:53:29;;;;;;;1.60;1.10;;;12.90;98.20;;;;;;4985060;28;21146;-76
2023/02/22 10:56:11;;;;;;;1.67;1.20;;;13.00;98.20;;;;;;4972407;28;20484;-75
2023/02/22 10:58:49;;;;;;;2.10;1.83;;;13.00;98.20;;;;;;4975762;28;20614;-75
2023/02/22 11:01:26;;;;;;;1.60;1.00;;;13.20;98.20;;;;;;4977082;28;20495;-76
2023/02/22 11:04:05;;;;;;;2.27;2.07;;;13.40;98.20;;;;;;4978034;28;20535;-76
2023/02/22 11:06:35;;;;;;;1.70;1.20;;;13.60;98.20;;;;;;4969622;28;20544;-75
2023/02/22 11:09:12;;;;;;;1.80;1.53;;;13.80;98.20;;;;;;4981763;28;21049;-75
2023/02/22 11:11:42;;;;;;;1.60;1.10;;;13.80;98.20;;;;;;4976969;28;20520;-75
2023/02/22 11:14:11;;;;;;;1.60;1.00;;;14.00;98.20;;;;;;4983367;28;20460;-75
2023/02/22 11:16:43;;;;;;;2.37;2.03;;;14.00;98.20;;;;;;4973093;28;20484;-75
2023/02/22 11:19:19;;;;;;;1.60;1.10;;;14.20;98.20;;;;;;4980696;28;21018;-75
2023/02/22 11:21:51;;;;;;;1.60;1.00;;;14.30;98.20;;;;;;4965912;28;20493;-76
2023/02/22 11:24:23;;;;;;;1.70;1.20;;;14.50;98.20;;;;;;4982272;28;21017;-75
2023/02/22 11:26:55;;;;;;;1.60;1.00;;;14.60;98.20;;;;;;4975515;28;20635;-75
2023/02/22 11:29:30;;;;;;;1.60;1.10;;;14.70;98.20;;;;;;4985314;28;20470;-75
2023/02/22 11:31:59;;;;;;;1.67;1.00;;;14.90;98.20;;;;;;4965494;28;20576;-75
2023/02/22 11:34:33;;;;;;;1.60;1.00;;;15.20;98.20;;;;;;4978379;28;20475;-75
2023/02/22 11:40:12;;;;;;;1.60;1.10;;;15.30;98.20;;;;;;5095075;27;20567;-74
2023/02/22 11:42:40;;;;;;;2.03;1.47;;;15.50;97.70;;;;;;5085734;28;20490;-74
2023/02/22 11:45:13;;;;;;;1.60;1.07;;;15.60;98.20;;;;;;5056515;28;21820;-74
2023/02/22 11:47:55;;;;;;;3.80;3.33;;;15.80;97.20;;;;;;5054690;28;20576;-74
2023/02/22 11:50:35;;;;;;;1.60;1.00;;;15.80;95.40;;;;;;5056625;28;20883;-71
2023/02/22 11:53:17;;;;;;;1.70;1.00;;;15.70;96.10;;;;;;5060100;28;20476;-75
2023/02/22 11:55:58;;;;;;;1.60;1.00;;;15.80;97.80;;;;;;5055706;28;20485;-76
2023/02/22 11:58:36;;;;;;;1.60;0.90;;;16.00;97.30;;;;;;5043649;28;20482;-75
2023/02/22 12:01:15;;;;;;;1.60;1.10;;;16.10;96.20;;;;;;5046173;28;20465;-74
2023/02/22 12:04:05;;;;;;;1.60;1.00;;;16.30;96.40;;;;;;5060199;28;20997;-74
2023/02/22 12:06:41;;;;;;;1.60;1.00;;;16.50;96.40;;;;;;5047614;28;20520;-74
2023/02/22 12:09:15;;;;;;;1.70;1.10;;;16.60;95.40;;;;;;5057478;28;20462;-74
2023/02/22 12:11:53;;;;;;;1.60;0.90;;;16.70;95.10;;;;;;5054021;28;20494;-75
2023/02/22 12:14:30;;;;;;;1.63;1.07;;;16.70;94.00;;;;;;5058126;28;20467;-75
2023/02/22 12:17:19;;;;;;;1.60;1.00;;;16.70;94.40;;;;;;5064629;27;20823;-73
2023/02/22 12:19:50;;;;;;;1.60;0.93;;;16.60;93.10;;;;;;5056453;28;20489;-74
2023/02/22 12:22:22;;;;;;;1.60;1.00;;;16.60;94.30;;;;;;5048403;28;20485;-74
2023/02/22 12:24:58;;;;;;;1.60;1.00;;;16.60;94.70;;;;;;5030188;28;20555;-74
2023/02/22 12:27:32;;;;;;;1.60;1.00;;;16.60;94.90;;;;;;5042023;28;20965;-74
2023/02/22 12:30:06;;;;;;;1.60;0.90;;;16.60;94.20;;;;;;5029787;28;20463;-74
2023/02/22 12:32:40;;;;;;;1.60;0.93;;;16.50;93.30;;;;;;5045599;28;20481;-75
2023/02/22 12:35:15;;;;;;;1.60;1.00;;;16.40;94.80;;;;;;5030595;28;20533;-74
2023/02/22 12:37:52;;;;;;;1.60;1.00;;;16.40;95.60;;;;;;5046837;28;20492;-75
2023/02/22 12:40:27;;;;;;;1.60;1.00;;;16.50;95.60;;;;;;5024651;28;20988;-74
2023/02/22 12:43:00;;;;;;;1.60;1.00;;;16.60;94.90;;;;;;5050359;28;20538;-75
2023/02/22 12:45:34;;;;;;;1.60;1.00;;;16.70;94.80;;;;;;5031746;28;20901;-74
2023/02/22 12:48:17;;;;;;;1.60;0.93;;;16.80;94.70;;;;;;5049645;28;20764;-74
2023/02/22 12:50:47;;;;;;;1.60;0.90;;;16.90;92.70;;;;;;5013745;28;20902;-75
2023/02/22 12:53:21;;;;;;;1.60;0.97;;;16.90;94.10;;;;;;5026974;28;20483;-74
2023/02/22 12:55:54;;;;;;;1.70;1.10;;;17.00;94.10;;;;;;5031429;28;20490;-74
2023/02/22 12:58:30;;;;;;;1.60;0.90;;;17.00;94.00;;;;;;5059114;28;20490;-75
2023/02/22 13:01:01;;;;;;;1.60;0.93;;;17.00;93.00;;;;;;5035226;28;20465;-74
2023/02/22 13:03:36;;;;;;;1.60;0.97;;;17.00;94.20;;;;;;5017165;28;21018;-74
2023/02/22 13:06:27;;;;;;;1.60;1.00;;;17.00;93.30;;;;;;4999421;28;20505;-74
2023/02/22 13:09:13;;;;;;;1.60;0.90;;;17.00;90.80;;;;;;5024296;28;20463;-73
2023/02/22 13:11:49;;;;;;;1.60;1.00;;;16.80;91.80;;;;;;5007667;28;20580;-73
2023/02/22 13:14:36;;;;;;;1.60;1.10;;;16.70;93.80;;;;;;5025260;28;20463;-75
2023/02/22 13:17:19;;;;;;;1.60;0.90;;;16.70;93.50;;;;;;5017562;28;20497;-74
2023/02/22 13:19:52;;;;;;;1.60;0.90;;;16.60;94.40;;;;;;5021993;28;20596;-74
2023/02/22 13:22:25;;;;;;;1.60;0.90;;;16.70;94.30;;;;;;5035618;28;20486;-75
2023/02/22 13:25:08;;;;;;;1.60;1.00;;;16.70;94.90;;;;;;5045907;28;20993;-74
2023/02/22 13:27:43;;;;;;;1.60;0.93;;;16.80;93.50;;;;;;5022374;28;20494;-74